createdAt,value
2018-05-17T15:07:14.651Z,943.06
2018-05-17T15:56:08.263Z,943.03
2018-05-17T15:57:16.309Z,943.04
2018-05-17T15:58:24.305Z,943.05
2018-05-17T15:59:32.258Z,943.07
2018-05-17T16:00:40.322Z,943.10
2018-05-17T16:01:48.363Z,943.09
2018-05-17T16:02:56.419Z,943.06
2018-05-17T16:04:04.608Z,943.07
2018-05-17T16:05:12.569Z,943.12
2018-05-17T16:06:20.612Z,943.13
2018-05-17T16:07:28.681Z,943.12
2018-05-17T16:08:36.901Z,943.13
2018-05-17T16:09:44.885Z,943.15
2018-05-17T16:10:53.004Z,943.14
2018-05-17T16:12:00.925Z,943.21
2018-05-17T16:13:09.129Z,943.16
2018-05-17T16:14:17.088Z,943.19
2018-05-17T16:15:25.296Z,943.18
2018-05-17T16:16:33.211Z,943.20
2018-05-17T16:17:41.251Z,943.18
2018-05-17T16:18:49.347Z,943.19
2018-05-17T16:19:57.521Z,943.23
2018-05-17T16:21:05.483Z,943.23
2018-05-17T16:22:14.157Z,943.25
2018-05-17T16:23:21.972Z,943.27
2018-05-17T16:24:29.685Z,943.32
2018-05-17T16:25:37.870Z,943.30
2018-05-17T16:26:45.824Z,943.27
2018-05-17T16:27:55.327Z,943.28
2018-05-17T16:29:02.269Z,943.31
2018-05-17T16:30:10.057Z,943.33
2018-05-17T16:31:18.580Z,943.37
2018-05-17T16:32:26.168Z,943.34
2018-05-17T16:33:34.584Z,943.33
2018-05-17T16:34:42.303Z,943.41
2018-05-17T16:35:50.549Z,943.43
2018-05-17T16:36:58.631Z,943.44
2018-05-17T16:38:06.806Z,943.39
2018-05-17T16:39:14.582Z,943.38
2018-05-17T16:40:22.951Z,943.38
2018-05-17T16:41:30.682Z,943.37
2018-05-17T16:42:39.675Z,943.34
2018-05-17T16:43:46.852Z,943.36
2018-05-17T16:44:55.107Z,943.37
2018-05-17T16:46:02.988Z,943.42
2018-05-17T16:47:11.151Z,943.45
2018-05-17T16:48:19.164Z,943.44
2018-05-17T16:49:27.478Z,943.45
2018-05-17T16:50:35.591Z,943.48
2018-05-17T16:51:43.338Z,943.42
2018-05-17T16:52:51.813Z,943.45
2018-05-17T16:53:59.990Z,943.44
2018-05-17T16:55:07.673Z,943.48
2018-05-17T16:56:15.753Z,943.46
2018-05-17T16:57:23.973Z,943.48
2018-05-17T16:58:32.325Z,943.49
2018-05-17T16:59:39.819Z,943.48
2018-05-17T17:00:52.969Z,943.52
2018-05-17T17:01:56.262Z,943.51
2018-05-17T17:03:04.039Z,943.46
2018-05-17T17:04:12.094Z,943.45
2018-05-17T17:05:20.455Z,943.48
2018-05-17T17:06:28.536Z,943.45
2018-05-17T17:07:36.609Z,943.50
2018-05-17T17:08:44.497Z,943.46
2018-05-17T17:09:52.707Z,943.48
2018-05-17T17:11:00.802Z,943.49
2018-05-17T17:12:08.575Z,943.48
2018-05-17T17:13:16.645Z,943.44
2018-05-17T17:14:24.833Z,943.42
2018-05-17T17:15:33.432Z,943.43
2018-05-17T17:16:40.888Z,943.42
2018-05-17T17:17:48.944Z,943.40
2018-05-17T17:18:57.138Z,943.44
2018-05-17T17:20:05.112Z,943.37
2018-05-17T17:21:13.146Z,943.40
2018-05-17T17:22:21.189Z,943.44
2018-05-17T17:23:29.276Z,943.40
2018-05-17T17:24:37.377Z,943.44
2018-05-17T17:25:45.414Z,943.48
2018-05-17T17:26:53.681Z,943.53
2018-05-17T17:28:01.538Z,943.54
2018-05-17T17:29:09.606Z,943.57
2018-05-17T17:30:17.782Z,943.57
2018-05-17T17:31:25.743Z,943.57
2018-05-17T17:32:33.859Z,943.57
2018-05-17T17:33:41.875Z,943.55
2018-05-17T17:34:49.943Z,943.57
2018-05-17T17:35:58.572Z,943.54
2018-05-17T17:37:06.093Z,943.57
2018-05-17T17:38:14.163Z,943.58
2018-05-17T17:39:22.559Z,943.55
2018-05-17T17:40:30.295Z,943.55
2018-05-17T17:41:38.421Z,943.50
2018-05-17T17:42:46.426Z,943.50
2018-05-17T17:43:54.545Z,943.50
2018-05-17T17:45:02.960Z,943.49
2018-05-17T17:46:10.694Z,943.53
2018-05-17T17:47:18.749Z,943.56
2018-05-17T17:48:26.874Z,943.54
2018-05-17T17:49:35.026Z,943.53
2018-05-17T17:50:42.914Z,943.59
2018-05-17T17:51:50.999Z,943.58
2018-05-17T17:52:59.048Z,943.56
2018-05-17T17:54:07.206Z,943.56
2018-05-17T17:55:15.185Z,943.55
2018-05-17T17:56:23.245Z,943.55
2018-05-17T17:57:31.345Z,943.58
2018-05-17T17:58:40.597Z,943.56
2018-05-17T17:59:47.458Z,943.56
2018-05-17T18:00:55.517Z,943.57
2018-05-17T18:02:03.639Z,943.59
2018-05-17T18:03:11.720Z,943.58
2018-05-17T18:04:19.737Z,943.59
2018-05-17T18:05:27.833Z,943.59
2018-05-17T18:06:35.870Z,943.59
2018-05-17T18:07:44.626Z,943.61
2018-05-17T18:08:52.020Z,943.62
2018-05-17T18:10:00.519Z,943.62
2018-05-17T18:11:08.175Z,943.62
2018-05-17T18:12:16.263Z,943.61
2018-05-17T18:13:24.287Z,943.61
2018-05-17T18:14:32.350Z,943.61
2018-05-17T18:15:40.418Z,943.63
2018-05-17T18:16:48.501Z,943.62
2018-05-17T18:17:57.034Z,943.60
2018-05-17T18:19:04.682Z,943.59
2018-05-17T18:20:12.697Z,943.63
2018-05-17T18:21:20.739Z,943.59
2018-05-17T18:22:28.886Z,943.61
2018-05-17T18:23:36.905Z,943.61
2018-05-17T18:24:44.969Z,943.62
2018-05-17T18:25:53.034Z,943.63
2018-05-17T18:27:01.074Z,943.63
2018-05-17T18:28:09.155Z,943.62
2018-05-17T18:29:17.231Z,943.68
2018-05-17T18:30:25.300Z,943.64
2018-05-17T18:31:33.365Z,943.65
2018-05-17T18:32:41.547Z,943.64
2018-05-17T18:33:49.589Z,943.67
2018-05-17T18:34:57.681Z,943.66
2018-05-17T18:36:05.635Z,943.70
2018-05-17T18:37:13.697Z,943.70
2018-05-17T18:38:21.822Z,943.71
2018-05-17T18:39:29.850Z,943.70
2018-05-17T18:40:37.921Z,943.71
2018-05-17T18:41:45.971Z,943.71
2018-05-17T18:42:54.080Z,943.70
2018-05-17T18:44:02.105Z,943.67
2018-05-17T18:45:10.187Z,943.69
2018-05-17T18:46:18.246Z,943.69
2018-05-17T18:47:26.312Z,943.73
2018-05-17T18:48:34.480Z,943.73
2018-05-17T18:49:42.507Z,943.73
2018-05-17T18:50:50.553Z,943.71
2018-05-17T18:51:58.567Z,943.70
2018-05-17T18:53:06.648Z,943.72
2018-05-17T18:54:14.746Z,943.73
2018-05-17T18:55:23.127Z,943.76
2018-05-17T18:56:30.807Z,943.78
2018-05-17T18:57:38.899Z,943.78
2018-05-17T18:58:46.984Z,943.81
2018-05-17T18:59:55.086Z,943.80
2018-05-17T19:01:03.098Z,943.83
2018-05-17T19:02:11.178Z,943.91
2018-05-17T19:03:19.222Z,943.93
2018-05-17T19:04:27.293Z,943.94
2018-05-17T19:05:35.412Z,944.00
2018-05-17T19:06:43.499Z,944.00
2018-05-17T19:07:51.510Z,944.03
2018-05-17T19:08:59.577Z,944.07
2018-05-17T19:10:07.642Z,944.06
2018-05-17T19:11:15.822Z,944.08
2018-05-17T19:12:23.770Z,944.11
2018-05-17T19:13:31.826Z,944.08
2018-05-17T19:14:39.906Z,944.14
2018-05-17T19:15:47.974Z,944.12
2018-05-17T19:16:56.131Z,944.13
2018-05-17T19:18:04.094Z,944.15
2018-05-17T19:19:12.164Z,944.15
2018-05-17T19:20:20.325Z,944.16
2018-05-17T19:21:28.298Z,944.18
2018-05-17T19:22:36.411Z,944.19
2018-05-17T19:23:44.573Z,944.16
2018-05-17T19:24:52.495Z,944.19
2018-05-17T19:26:00.547Z,944.20
2018-05-17T19:27:08.666Z,944.23
2018-05-17T19:28:16.686Z,944.22
2018-05-17T19:29:24.778Z,944.24
2018-05-17T19:30:32.828Z,944.22
2018-05-17T19:31:40.910Z,944.24
2018-05-17T19:32:49.004Z,944.26
2018-05-17T19:33:57.118Z,944.31
2018-05-17T19:35:05.076Z,944.30
2018-05-17T19:36:13.141Z,944.30
2018-05-17T19:37:21.395Z,944.29
2018-05-17T19:38:29.336Z,944.33
2018-05-17T19:39:37.354Z,944.28
2018-05-17T19:40:45.404Z,944.30
2018-05-17T19:41:53.473Z,944.29
2018-05-17T19:43:01.540Z,944.28
2018-05-17T19:44:09.596Z,944.31
2018-05-17T19:45:17.768Z,944.32
2018-05-17T19:46:25.882Z,944.34
2018-05-17T19:47:33.816Z,944.31
2018-05-17T19:48:41.993Z,944.28
2018-05-17T19:49:49.935Z,944.31
2018-05-17T19:50:58.009Z,944.33
2018-05-17T19:52:06.058Z,944.37
2018-05-17T19:53:14.186Z,944.36
2018-05-17T19:54:22.314Z,944.40
2018-05-17T19:55:30.273Z,944.38
2018-05-17T19:56:38.330Z,944.37
2018-05-17T19:57:46.391Z,944.37
2018-05-17T19:58:54.461Z,944.40
2018-05-17T20:00:02.569Z,944.41
2018-05-17T20:01:10.585Z,944.40
2018-05-17T20:02:18.666Z,944.44
2018-05-17T20:03:26.719Z,944.41
2018-05-17T20:04:34.797Z,944.45
2018-05-17T20:05:42.898Z,944.45
2018-05-17T20:06:50.903Z,944.42
2018-05-17T20:07:58.986Z,944.44
2018-05-17T20:09:07.175Z,944.41
2018-05-17T20:10:15.125Z,944.45
2018-05-17T20:11:23.272Z,944.47
2018-05-17T20:12:31.222Z,944.45
2018-05-17T20:13:39.313Z,944.45
2018-05-17T20:14:47.366Z,944.51
2018-05-17T20:15:55.422Z,944.51
2018-05-17T20:17:03.624Z,944.54
2018-05-17T20:18:11.574Z,944.52
2018-05-17T20:19:19.633Z,944.52
2018-05-17T20:20:27.699Z,944.53
2018-05-17T20:21:35.757Z,944.52
2018-05-17T20:22:43.876Z,944.46
2018-05-17T20:23:51.892Z,944.44
2018-05-17T20:25:00.070Z,944.45
2018-05-17T20:26:08.024Z,944.38
2018-05-17T20:27:16.101Z,944.39
2018-05-17T20:28:24.276Z,944.39
2018-05-17T20:29:32.209Z,944.45
2018-05-17T20:30:40.304Z,944.42
2018-05-17T20:31:48.360Z,944.44
2018-05-17T20:32:56.416Z,944.45
2018-05-17T20:34:04.988Z,944.46
2018-05-17T20:35:12.522Z,944.48
2018-05-17T20:36:20.596Z,944.46
2018-05-17T20:37:28.669Z,944.46
2018-05-17T20:38:36.730Z,944.46
2018-05-17T20:39:44.923Z,944.44
2018-05-17T20:40:52.914Z,944.44
2018-05-17T20:42:00.905Z,944.46
2018-05-17T20:43:08.999Z,944.45
2018-05-17T20:44:17.051Z,944.45
2018-05-17T20:45:25.226Z,944.46
2018-05-17T20:46:33.184Z,944.47
2018-05-17T20:47:41.583Z,944.45
2018-05-17T20:48:50.017Z,944.43
2018-05-17T20:49:57.367Z,944.42
2018-05-17T20:51:05.485Z,944.42
2018-05-17T20:52:13.510Z,944.38
2018-05-17T20:53:21.572Z,944.40
2018-05-17T20:54:29.646Z,944.34
2018-05-17T20:55:37.694Z,944.40
2018-05-17T20:56:45.886Z,944.36
2018-05-17T20:57:53.830Z,944.34
2018-05-17T20:59:01.894Z,944.37
2018-05-17T21:00:09.968Z,944.38
2018-05-17T21:01:18.045Z,944.37
2018-05-17T21:02:26.134Z,944.38
2018-05-17T21:03:34.158Z,944.32
2018-05-17T21:04:42.203Z,944.35
2018-05-17T21:05:50.269Z,944.30
2018-05-17T21:06:58.338Z,944.34
2018-05-17T21:08:06.407Z,944.31
2018-05-17T21:09:14.460Z,944.35
2018-05-17T21:10:22.537Z,944.35
2018-05-17T21:11:30.593Z,944.38
2018-05-17T21:12:38.709Z,944.37
2018-05-17T21:13:46.721Z,944.36
2018-05-17T21:14:54.797Z,944.38
2018-05-17T21:16:02.853Z,944.32
2018-05-17T21:17:10.942Z,944.37
2018-05-17T21:18:18.982Z,944.36
2018-05-17T21:19:27.051Z,944.34
2018-05-17T21:20:35.099Z,944.33
2018-05-17T21:21:43.171Z,944.32
2018-05-17T21:22:51.265Z,944.30
2018-05-17T21:23:59.316Z,944.27
2018-05-17T21:25:07.367Z,944.26
2018-05-17T21:26:15.438Z,944.26
2018-05-17T21:27:23.622Z,944.22
2018-05-17T21:28:31.562Z,944.26
2018-05-17T21:29:39.642Z,944.27
2018-05-17T21:30:47.693Z,944.26
2018-05-17T21:31:55.738Z,944.27
2018-05-17T21:33:03.863Z,944.25
2018-05-17T21:34:11.915Z,944.27
2018-05-17T21:35:19.950Z,944.24
2018-05-17T21:36:28.011Z,944.25
2018-05-17T21:37:36.071Z,944.21
2018-05-17T21:38:44.174Z,944.23
2018-05-17T21:39:52.196Z,944.20
2018-05-17T21:41:00.262Z,944.23
2018-05-17T21:42:08.448Z,944.22
2018-05-17T21:43:16.394Z,944.24
2018-05-17T21:44:24.494Z,944.22
2018-05-17T21:45:32.526Z,944.26
2018-05-17T21:46:40.582Z,944.27
2018-05-17T21:47:48.661Z,944.24
2018-05-17T21:48:56.732Z,944.29
2018-05-17T21:50:04.888Z,944.25
2018-05-17T21:51:12.845Z,944.28
2018-05-17T21:52:20.885Z,944.27
2018-05-17T21:53:28.970Z,944.31
2018-05-17T21:54:37.023Z,944.35
2018-05-17T21:55:45.133Z,944.31
2018-05-17T21:56:53.180Z,944.33
2018-05-17T21:58:01.251Z,944.32
2018-05-17T21:59:09.278Z,944.31
2018-05-17T22:00:17.351Z,944.34
2018-05-17T22:01:25.523Z,944.31
2018-05-17T22:02:33.475Z,944.31
2018-05-17T22:03:41.546Z,944.27
2018-05-17T22:04:49.618Z,944.26
2018-05-17T22:05:57.666Z,944.25
2018-05-17T22:07:05.770Z,944.28
2018-05-17T22:08:13.804Z,944.26
2018-05-17T22:09:21.861Z,944.22
2018-05-17T22:10:29.931Z,944.27
2018-05-17T22:11:37.984Z,944.27
2018-05-17T22:12:46.166Z,944.28
2018-05-17T22:13:54.163Z,944.26
2018-05-17T22:15:02.176Z,944.27
2018-05-17T22:16:10.227Z,944.31
2018-05-17T22:17:18.308Z,944.31
2018-05-17T22:18:26.408Z,944.33
2018-05-17T22:19:34.417Z,944.36
2018-05-17T22:20:42.500Z,944.37
2018-05-17T22:21:50.545Z,944.35
2018-05-17T22:22:58.604Z,944.34
2018-05-17T22:24:06.792Z,944.36
2018-05-17T22:25:14.722Z,944.37
2018-05-17T22:26:22.796Z,944.33
2018-05-17T22:27:30.835Z,944.36
2018-05-17T22:28:38.926Z,944.34
2018-05-17T22:29:47.085Z,944.33
2018-05-17T22:30:55.051Z,944.32
2018-05-17T22:32:03.124Z,944.30
2018-05-17T22:33:11.163Z,944.27
2018-05-17T22:34:19.254Z,944.25
2018-05-17T22:35:27.411Z,944.22
2018-05-17T22:36:35.364Z,944.24
2018-05-17T22:37:43.418Z,944.22
2018-05-17T22:38:51.486Z,944.24
2018-05-17T22:39:59.553Z,944.23
2018-05-17T22:41:07.727Z,944.19
2018-05-17T22:42:15.690Z,944.17
2018-05-17T22:43:23.761Z,944.21
2018-05-17T22:44:31.812Z,944.20
2018-05-17T22:45:39.996Z,944.19
2018-05-17T22:46:48.057Z,944.17
2018-05-17T22:47:56.017Z,944.19
2018-05-17T22:49:04.067Z,944.14
2018-05-17T22:50:12.147Z,944.21
2018-05-17T22:51:20.213Z,944.17
2018-05-17T22:52:28.309Z,944.17
2018-05-17T22:53:36.318Z,944.15
2018-05-17T22:54:44.383Z,944.15
2018-05-17T22:55:52.448Z,944.16
2018-05-17T22:57:00.486Z,944.15
2018-05-17T22:58:08.586Z,944.20
2018-05-17T22:59:16.640Z,944.20
2018-05-17T23:00:24.706Z,944.22
2018-05-17T23:01:32.875Z,944.19
2018-05-17T23:02:40.954Z,944.20
2018-05-17T23:03:49.082Z,944.15
2018-05-17T23:04:56.963Z,944.17
2018-05-17T23:06:05.019Z,944.16
2018-05-17T23:07:13.082Z,944.14
2018-05-17T23:08:21.155Z,944.12
2018-05-17T23:09:29.193Z,944.14
2018-05-17T23:10:37.262Z,944.13
2018-05-17T23:11:45.339Z,944.15
2018-05-17T23:12:53.389Z,944.10
2018-05-17T23:14:01.559Z,944.12
2018-05-17T23:15:09.528Z,944.15
2018-05-17T23:16:17.595Z,944.14
2018-05-17T23:17:25.694Z,944.12
2018-05-17T23:18:33.720Z,944.15
2018-05-17T23:19:41.884Z,944.08
2018-05-17T23:20:49.863Z,944.09
2018-05-17T23:21:57.892Z,944.08
2018-05-17T23:23:05.959Z,944.07
2018-05-17T23:24:14.037Z,944.09
2018-05-17T23:25:22.192Z,944.11
2018-05-17T23:26:30.148Z,944.12
2018-05-17T23:27:38.216Z,944.10
2018-05-17T23:28:46.269Z,944.13
2018-05-17T23:29:54.321Z,944.10
2018-05-17T23:31:02.432Z,944.12
2018-05-17T23:32:10.489Z,944.13
2018-05-17T23:33:18.520Z,944.12
2018-05-17T23:34:26.576Z,944.11
2018-05-17T23:35:34.652Z,944.09
2018-05-17T23:36:42.769Z,944.09
2018-05-17T23:37:50.765Z,944.13
2018-05-17T23:38:58.835Z,944.11
2018-05-17T23:40:06.911Z,944.07
2018-05-17T23:41:14.982Z,944.10
2018-05-17T23:42:23.079Z,944.08
2018-05-17T23:43:31.066Z,944.04
2018-05-17T23:44:39.161Z,944.01
2018-05-17T23:45:47.204Z,944.05
2018-05-17T23:46:55.293Z,944.04
2018-05-17T23:48:03.357Z,944.04
2018-05-17T23:49:11.402Z,944.04
2018-05-17T23:50:19.489Z,944.07
2018-05-17T23:51:27.532Z,944.12
2018-05-17T23:52:35.710Z,944.07
2018-05-17T23:53:43.655Z,944.08
2018-05-17T23:54:51.717Z,944.09
2018-05-17T23:55:59.796Z,944.12
2018-05-17T23:57:07.844Z,944.10
2018-05-17T23:58:16.028Z,944.10
2018-05-17T23:59:23.974Z,944.09
